OIBL

Bandar Lengeh Airport

Airport
ICAO code
OIBL
IATA Code
BDH
Summary
ICAO Region
MID
ICAO Territory
Location

Sadaf, Bandar Lengeh

Serving
Bandar Lengeh
Elevation
67 ft
Coordinates
26° 31' 53" N , 54° 49' 40" E
KCC
Metar
Observation
OIBL 070300Z 04006KT 2500 BR NSC 21/20 Q1015
Station
Bandar Lengeh
Date/Time
2022-12-07 03:00:00
Wind direction
40°
Wind speed
06 kts
Lowest cloud amount
nil significant cloud
Temperature
21°C
Dew point
20°C
Humidity
94%
QNH
1015 hPa
Weather condition
n/a

Airport 6km southwest of Bandar Length, Iran.

Climatology

Hot Desert climate (Köppen climate classification BWh).

Runways

Designator Length Width Surface Rops
8/26 2500 45 ASP No/No

Airport map

Aerial View

SKYbrary Partners:

Safety knowledge contributed by: